Time;durP1;ratioP1;P1;durP2;ratioP2;P2;SDS_P1;SDS_P2;PMS_P1;PMS_P2;Temp;Humidity;BMP_temperature;BMP_pressure;BME280_temperature;BME280_humidity;BME280_pressure;Samples;Min_cycle;Max_cycle;Signal;HPM_P1;HPM_P2
2021/03/19 00:02:13;;;;;;;10.70;6.55;;;;;;;2.10;99.34;96693.63;5043944;28;20102;-65
2021/03/19 00:04:57;;;;;;;11.88;6.63;;;;;;;2.01;99.63;96668.25;5043934;28;20577;-65
2021/03/19 00:08:02;;;;;;;11.02;6.45;;;;;;;2.19;99.10;96690.88;5063534;28;20112;-65
2021/03/19 00:10:46;;;;;;;12.43;7.15;;;;;;;1.98;99.59;96700.84;5063220;28;20093;-65
2021/03/19 00:13:30;;;;;;;14.50;7.97;;;;;;;1.50;98.91;96641.81;5063673;28;20487;-65
2021/03/19 00:16:14;;;;;;;18.83;9.35;;;;;;;1.49;98.08;96612.13;5063715;28;20094;-64
2021/03/19 00:18:58;;;;;;;17.65;9.88;;;;;;;-1.12;97.75;96183.94;5062991;28;20035;-64
2021/03/19 00:21:42;;;;;;;15.90;10.02;;;;;;;1.97;98.37;96699.25;5063271;28;20423;-65
2021/03/19 00:24:26;;;;;;;19.35;10.52;;;;;;;1.98;99.59;96679.81;5063882;28;20051;-65
2021/03/19 00:27:10;;;;;;;25.02;13.48;;;;;;;1.86;99.68;96667.97;5063172;28;20617;-65
2021/03/19 00:29:54;;;;;;;44.33;22.38;;;;;;;1.47;99.77;96615.19;5062546;28;20122;-65
2021/03/19 00:32:39;;;;;;;38.97;20.48;;;;;;;1.92;100.00;96685.78;5063840;28;20506;-65
2021/03/19 00:35:23;;;;;;;35.55;17.88;;;;;;;1.90;100.00;96688.03;5049063;28;20055;-65
2021/03/19 00:38:09;;;;;;;30.52;14.30;;;;;;;1.94;100.00;96683.53;5063306;28;20046;-65
2021/03/19 00:40:54;;;;;;;29.95;14.20;;;;;;;1.97;99.34;96682.88;5062796;28;20174;-65
2021/03/19 00:43:38;;;;;;;86.43;38.17;;;;;;;1.87;99.64;96683.22;5063642;28;20075;-65
2021/03/19 00:46:22;;;;;;;32.78;16.55;;;;;;;1.75;100.00;96655.78;5062844;28;20089;-65
2021/03/19 00:49:06;;;;;;;16.67;9.35;;;;;;;1.91;98.66;96676.00;5063642;28;20048;-65
2021/03/19 00:51:50;;;;;;;20.17;10.45;;;;;;;1.70;99.31;96658.66;5064146;28;20063;-64
2021/03/19 00:54:34;;;;;;;16.73;10.23;;;;;;;0.80;99.48;96502.31;5068189;28;20510;-65
2021/03/19 00:57:18;;;;;;;19.67;10.30;;;;;;;1.87;99.47;96672.28;5065996;28;20059;-66
2021/03/19 01:00:07;;;;;;;17.33;9.43;;;;;;;1.89;100.00;96670.03;5067094;28;20056;-65
2021/03/19 01:02:51;;;;;;;16.70;8.63;;;;;;;1.83;99.85;96682.25;5067297;28;20423;-65
2021/03/19 01:05:38;;;;;;;13.70;7.38;;;;;;;1.74;100.00;96685.00;5064496;28;20094;-65
2021/03/19 01:08:22;;;;;;;12.52;7.15;;;;;;;1.08;100.00;96588.09;5046496;28;20047;-65
2021/03/19 01:11:07;;;;;;;13.82;7.40;;;;;;;1.84;100.00;96670.19;5046923;28;20039;-65
2021/03/19 01:13:51;;;;;;;16.35;8.48;;;;;;;1.85;99.28;96658.19;5047274;28;20529;-65
2021/03/19 01:16:35;;;;;;;17.52;8.90;;;;;;;1.55;98.68;96584.34;5046989;28;20035;-64
2021/03/19 01:19:19;;;;;;;15.77;8.27;;;;;;;2.04;97.64;96639.50;5047362;28;20055;-65
2021/03/19 01:22:03;;;;;;;14.57;8.18;;;;;;;2.28;96.65;96661.59;5044978;28;20434;-65
2021/03/19 01:24:47;;;;;;;19.75;8.27;;;;;;;1.21;96.40;96508.03;5045386;28;20090;-65
2021/03/19 01:27:31;;;;;;;14.80;7.97;;;;;;;2.34;93.91;96671.22;5046701;28;20040;-65
2021/03/19 01:30:21;;;;;;;17.90;8.52;;;;;;;2.30;93.88;96676.53;5046093;28;20048;-65
2021/03/19 01:33:06;;;;;;;17.50;8.73;;;;;;;2.18;95.50;96670.16;5046769;28;20613;-65
2021/03/19 01:35:50;;;;;;;16.65;9.20;;;;;;;2.20;95.34;96673.34;5044971;28;20120;-64
2021/03/19 01:38:36;;;;;;;15.52;7.35;;;;;;;1.93;95.36;96622.66;5046854;28;20110;-64
2021/03/19 01:41:22;;;;;;;13.07;7.93;;;;;;;2.03;95.59;96655.06;5044783;28;20150;-65
2021/03/19 01:44:14;;;;;;;19.13;8.65;;;;;;;2.17;95.39;96649.41;5046633;28;20118;-64
2021/03/19 01:47:35;;;;;;;14.50;6.60;;;;;;;2.18;93.38;96651.81;5045321;28;20118;-65
2021/03/19 01:50:57;;;;;;;17.40;7.82;;;;;;;2.13;94.57;96652.00;5046217;28;20048;-66
2021/03/19 01:54:20;;;;;;;16.52;8.32;;;;;;;1.96;96.06;96653.97;5046845;28;20112;-67
2021/03/19 01:57:42;;;;;;;12.15;6.47;;;;;;;1.99;96.72;96653.31;5046341;28;20090;-66
2021/03/19 02:01:04;;;;;;;17.83;10.00;;;;;;;2.15;97.21;96647.00;5044621;28;20055;-66
2021/03/19 02:04:26;;;;;;;23.67;11.05;;;;;;;2.10;96.88;96640.94;5046368;28;20099;-66
2021/03/19 02:07:48;;;;;;;22.85;11.45;;;;;;;2.01;97.73;96646.41;5058962;28;20572;-66
2021/03/19 02:11:10;;;;;;;25.27;11.82;;;;;;;2.12;97.51;96652.34;5065520;28;20047;-66
2021/03/19 02:14:32;;;;;;;41.25;20.95;;;;;;;2.13;97.88;96659.38;5066322;28;20059;-65
2021/03/19 02:17:53;;;;;;;20.10;11.18;;;;;;;2.09;97.79;96664.69;5066050;28;20062;-65
2021/03/19 02:21:15;;;;;;;53.17;19.55;;;;;;;2.29;97.18;96663.22;5064336;28;20115;-65
2021/03/19 02:24:37;;;;;;;37.13;22.13;;;;;;;2.22;95.65;96660.16;5064657;28;20051;-65
2021/03/19 02:27:59;;;;;;;12.98;7.88;;;;;;;2.23;96.99;96659.06;5064352;28;20051;-66
2021/03/19 02:31:09;;;;;;;12.32;8.07;;;;;;;2.29;96.55;96663.97;5065617;28;20043;-66
2021/03/19 02:33:57;;;;;;;13.75;7.93;;;;;;;2.00;96.87;96644.00;5066323;28;20059;-66
2021/03/19 02:36:41;;;;;;;13.85;7.72;;;;;;;2.07;97.34;96666.16;5065042;28;20128;-65
2021/03/19 02:39:25;;;;;;;16.08;10.23;;;;;;;1.33;96.89;96565.44;5065763;28;20050;-65
2021/03/19 02:42:11;;;;;;;17.73;10.45;;;;;;;1.69;96.62;96556.06;5064620;28;20100;-65
2021/03/19 02:44:55;;;;;;;30.02;17.13;;;;;;;2.53;95.48;96657.97;5065196;28;20077;-65
2021/03/19 02:47:39;;;;;;;22.30;13.52;;;;;;;2.53;94.32;96636.09;5065260;28;20131;-65
2021/03/19 02:50:23;;;;;;;13.40;8.10;;;;;;;2.58;94.61;96644.09;5065045;28;20082;-65
2021/03/19 02:53:16;;;;;;;15.55;8.73;;;;;;;2.66;94.40;96635.06;5064428;28;20054;-66
2021/03/19 02:56:03;;;;;;;12.00;6.50;;;;;;;1.96;94.16;96501.06;5065035;28;20089;-65
2021/03/19 02:58:47;;;;;;;15.60;8.63;;;;;;;2.75;92.41;96633.88;5063714;28;20109;-65
2021/03/19 03:01:32;;;;;;;16.58;8.98;;;;;;;2.79;90.95;96658.63;5063408;28;20485;-66
2021/03/19 03:04:17;;;;;;;18.27;9.52;;;;;;;2.98;91.29;96653.53;5063755;28;20047;-65
2021/03/19 03:07:01;;;;;;;24.85;12.70;;;;;;;2.99;91.52;96661.41;5057505;28;20048;-65
2021/03/19 03:09:45;;;;;;;25.92;12.23;;;;;;;3.04;92.11;96652.22;5045152;28;20047;-65
2021/03/19 03:12:29;;;;;;;17.17;9.98;;;;;;;3.01;90.98;96664.63;5045059;28;20063;-64
2021/03/19 03:15:16;;;;;;;17.60;10.50;;;;;;;2.82;91.95;96639.66;5044305;28;20103;-65
2021/03/19 03:18:01;;;;;;;22.08;11.02;;;;;;;2.88;92.91;96651.19;5044948;28;20209;-65
2021/03/19 03:20:58;;;;;;;19.42;11.15;;;;;;;2.84;93.85;96680.34;5044588;28;20111;-65
2021/03/19 03:23:41;;;;;;;13.23;8.32;;;;;;;2.93;93.87;96656.47;5045065;28;20537;-64
2021/03/19 03:26:25;;;;;;;71.32;26.65;;;;;;;3.06;92.20;96671.84;5044486;28;20537;-65
2021/03/19 03:29:11;;;;;;;17.10;12.60;;;;;;;2.82;91.28;96660.72;5044934;28;20039;-65
2021/03/19 03:31:56;;;;;;;14.80;9.18;;;;;;;2.80;92.91;96668.44;5043109;28;20102;-65
2021/03/19 03:34:40;;;;;;;17.52;10.73;;;;;;;1.58;93.21;96474.53;5043736;28;20048;-65
2021/03/19 03:37:24;;;;;;;18.27;11.95;;;;;;;2.69;92.49;96626.19;5044219;28;20050;-64
2021/03/19 03:40:12;;;;;;;17.33;10.30;;;;;;;2.92;91.72;96633.78;5043832;28;20043;-65
2021/03/19 03:42:57;;;;;;;11.35;7.63;;;;;;;3.04;90.94;96646.75;5044236;28;20109;-65
2021/03/19 03:45:42;;;;;;;17.02;8.50;;;;;;;3.00;90.87;96651.28;5042254;28;20110;-65
2021/03/19 03:48:30;;;;;;;14.90;8.82;;;;;;;3.02;90.38;96649.00;5044341;28;20059;-66
2021/03/19 03:51:15;;;;;;;230.40;74.15;;;;;;;3.02;90.47;96654.47;5042737;28;20040;-65
2021/03/19 03:53:59;;;;;;;301.88;97.70;;;;;;;2.52;91.11;96564.22;5044415;28;20079;-65
2021/03/19 03:56:45;;;;;;;162.82;52.17;;;;;;;2.71;92.77;96591.94;5042597;28;20080;-65
2021/03/19 03:59:29;;;;;;;61.47;26.08;;;;;;;3.10;93.07;96651.69;5044125;28;20126;-65
2021/03/19 04:02:19;;;;;;;31.88;16.63;;;;;;;3.25;92.24;96647.56;5043690;28;20423;-65
2021/03/19 04:05:06;;;;;;;32.22;17.95;;;;;;;3.30;91.54;96663.81;5043527;28;20084;-65
2021/03/19 04:07:50;;;;;;;35.47;16.90;;;;;;;3.26;91.61;96654.63;5044867;28;20375;-64
2021/03/19 04:10:35;;;;;;;32.10;17.45;;;;;;;3.23;92.01;96641.63;5042146;28;20118;-64
2021/03/19 04:13:20;;;;;;;44.10;19.67;;;;;;;3.15;91.87;96623.31;5042681;28;20052;-66
2021/03/19 04:16:05;;;;;;;29.45;15.70;;;;;;;3.35;91.80;96649.13;5043240;28;20629;-65
2021/03/19 04:18:49;;;;;;;58.40;26.70;;;;;;;3.35;91.70;96669.06;5043791;28;20044;-64
2021/03/19 04:21:33;;;;;;;40.05;19.25;;;;;;;3.14;91.83;96624.47;5043528;28;20059;-64
2021/03/19 04:24:17;;;;;;;35.55;20.42;;;;;;;2.76;92.55;96618.28;5042352;28;20047;-64
2021/03/19 04:27:01;;;;;;;21.50;13.18;;;;;;;3.10;93.20;96650.88;5042533;28;20422;-66
2021/03/19 04:29:46;;;;;;;20.83;12.02;;;;;;;3.17;93.25;96651.16;5044079;28;20530;-65
2021/03/19 04:32:30;;;;;;;59.80;32.63;;;;;;;2.38;94.43;96612.03;5042615;28;20116;-65
2021/03/19 04:35:16;;;;;;;48.05;27.80;;;;;;;3.00;94.47;96660.28;5043531;28;20044;-64
2021/03/19 04:38:05;;;;;;;28.08;15.48;;;;;;;3.01;95.10;96652.88;5042574;28;20075;-65
2021/03/19 04:40:49;;;;;;;60.17;29.73;;;;;;;2.43;95.34;96592.75;5042699;28;20112;-64
2021/03/19 04:43:33;;;;;;;40.28;18.45;;;;;;;3.00;95.22;96659.50;5043965;28;20091;-69
2021/03/19 04:46:18;;;;;;;36.00;18.05;;;;;;;3.02;95.67;96665.41;5043229;28;20044;-67
2021/03/19 04:49:02;;;;;;;59.35;26.08;;;;;;;2.97;95.36;96668.38;5043797;28;20105;-66
2021/03/19 04:51:46;;;;;;;45.97;22.00;;;;;;;1.87;94.40;96508.47;5041675;28;20040;-66
2021/03/19 04:54:31;;;;;;;32.00;15.68;;;;;;;2.94;94.49;96674.50;5043628;28;20048;-66
2021/03/19 04:57:16;;;;;;;33.65;14.63;;;;;;;2.70;94.34;96691.47;5043052;28;20052;-66
2021/03/19 05:00:00;;;;;;;24.50;15.13;;;;;;;2.80;95.45;96662.97;5043539;28;20190;-66
2021/03/19 05:02:47;;;;;;;26.20;15.38;;;;;;;2.96;96.27;96664.81;5042157;28;20419;-66
2021/03/19 05:05:33;;;;;;;27.88;14.38;;;;;;;2.95;93.76;96624.13;5042842;28;20137;-66
2021/03/19 05:08:17;;;;;;;30.45;16.50;;;;;;;2.75;92.95;96581.94;5043260;28;20522;-65
2021/03/19 05:11:02;;;;;;;34.45;18.15;;;;;;;3.44;93.31;96658.84;5042966;28;20040;-64
2021/03/19 05:13:46;;;;;;;32.13;18.85;;;;;;;3.22;92.62;96593.50;5043255;28;20106;-66
2021/03/19 05:16:30;;;;;;;36.28;18.70;;;;;;;3.29;91.73;96599.22;5042937;28;20040;-65
2021/03/19 05:19:14;;;;;;;35.15;17.17;;;;;;;3.81;91.94;96662.59;5042146;28;20522;-65
2021/03/19 05:21:59;;;;;;;36.55;19.30;;;;;;;3.80;92.52;96672.72;5042659;28;20109;-65
2021/03/19 05:24:43;;;;;;;43.75;21.52;;;;;;;3.27;91.20;96579.63;5043472;28;20051;-65
2021/03/19 05:27:27;;;;;;;49.53;22.73;;;;;;;3.77;91.12;96667.91;5042778;28;20056;-65
2021/03/19 05:30:14;;;;;;;47.20;21.08;;;;;;;3.88;91.05;96688.28;5042543;28;20114;-65
2021/03/19 05:33:02;;;;;;;48.35;22.50;;;;;;;3.23;91.28;96584.16;5043149;28;20083;-65
2021/03/19 05:35:47;;;;;;;85.82;43.40;;;;;;;3.72;91.21;96634.44;5055490;28;20048;-65
2021/03/19 05:38:31;;;;;;;74.20;38.78;;;;;;;3.33;91.17;96578.28;5046824;28;20076;-65
2021/03/19 05:41:16;;;;;;;124.15;62.33;;;;;;;4.16;90.67;96700.25;5044950;28;20056;-66
2021/03/19 05:44:06;;;;;;;55.60;28.08;;;;;;;4.03;90.42;96671.22;5046967;28;20113;-65
2021/03/19 05:46:55;;;;;;;62.45;34.58;;;;;;;4.20;90.93;96690.25;5046134;28;20059;-65
2021/03/19 05:49:39;;;;;;;80.10;40.80;;;;;;;3.61;90.53;96606.69;5045191;28;20501;-65
2021/03/19 05:52:28;;;;;;;48.80;23.88;;;;;;;4.37;90.05;96690.06;5045855;28;20086;-65
2021/03/19 05:55:19;;;;;;;49.95;27.10;;;;;;;4.36;89.41;96699.41;5044781;28;20039;-65
2021/03/19 05:58:07;;;;;;;51.83;26.75;;;;;;;4.60;89.84;96704.94;5045245;28;20064;-65
2021/03/19 06:00:56;;;;;;;46.97;25.33;;;;;;;4.70;89.34;96698.22;5045907;28;20075;-68
2021/03/19 06:03:42;;;;;;;48.67;25.85;;;;;;;4.86;88.14;96696.41;5046979;28;20106;-66
2021/03/19 06:07:05;;;;;;;49.03;25.60;;;;;;;5.06;86.34;96705.69;5045630;28;20039;-66
2021/03/19 06:09:49;;;;;;;37.38;20.70;;;;;;;5.16;85.31;96710.72;4983842;28;20049;-65
2021/03/19 06:12:33;;;;;;;23.98;15.07;;;;;;;4.38;85.94;96576.50;4984016;28;20053;-65
2021/03/19 06:15:25;;;;;;;31.83;18.48;;;;;;;4.47;85.76;96574.44;5031483;28;20513;-67
2021/03/19 06:18:39;;;;;;;31.83;18.17;;;;;;;5.34;85.13;96706.59;5045982;28;20545;-67
2021/03/19 06:21:27;;;;;;;32.13;18.40;;;;;;;5.40;84.71;96711.50;5031172;28;20078;-66
2021/03/19 06:24:22;;;;;;;27.40;16.77;;;;;;;5.55;84.44;96712.72;5046102;28;20051;-67
2021/03/19 06:27:32;;;;;;;25.42;14.52;;;;;;;5.34;84.05;96657.16;5045451;28;20509;-68
2021/03/19 06:30:23;;;;;;;25.65;14.20;;;;;;;5.78;82.46;96717.41;5045805;28;20055;-66
2021/03/19 06:33:13;;;;;;;21.20;12.57;;;;;;;4.77;86.85;96720.41;5052096;28;20039;-62
2021/03/19 06:36:15;;;;;;;18.00;11.60;;;;;;;5.03;86.72;96722.81;5057330;28;20100;-63
2021/03/19 06:39:43;;;;;;;22.38;13.40;;;;;;;5.18;86.19;96719.41;5075178;28;20198;-65
2021/03/19 06:42:32;;;;;;;16.45;10.50;;;;;;;5.14;84.45;96721.25;5044865;28;20056;-70
2021/03/19 06:45:16;;;;;;;19.85;12.40;;;;;;;5.20;84.93;96719.88;5052651;28;20314;-64
2021/03/19 06:47:59;;;;;;;21.23;12.57;;;;;;;5.25;84.75;96747.09;5049855;28;20032;-63
2021/03/19 06:50:43;;;;;;;18.33;11.70;;;;;;;5.22;83.28;96736.78;5058792;28;20603;-64
2021/03/19 06:53:30;;;;;;;20.23;12.73;;;;;;;5.48;81.07;96729.00;5050972;28;20040;-64
2021/03/19 06:56:18;;;;;;;17.73;10.60;;;;;;;5.40;76.18;96727.97;5050313;28;20136;-65
2021/03/19 06:59:22;;;;;;;20.48;12.73;;;;;;;5.05;78.22;96737.00;5055241;28;20497;-64
2021/03/19 07:02:31;;;;;;;18.33;11.80;;;;;;;1.04;83.90;96250.97;5044647;28;20043;-64
2021/03/19 07:05:49;;;;;;;15.50;10.80;;;;;;;4.35;85.20;96741.69;5044408;28;20099;-67
2021/03/19 07:08:40;;;;;;;16.15;9.98;;;;;;;4.66;84.89;96722.78;5044855;28;20510;-65
2021/03/19 07:11:54;;;;;;;18.42;11.15;;;;;;;4.60;87.18;96740.59;5053008;28;20415;-64
2021/03/19 07:15:02;;;;;;;18.67;12.50;;;;;;;4.89;87.34;96747.06;5045150;28;20266;-64
2021/03/19 07:17:56;;;;;;;20.50;12.45;;;;;;;3.22;88.15;96505.94;5047503;28;20205;-63
2021/03/19 07:20:59;;;;;;;20.30;11.18;;;;;;;4.75;88.02;96738.34;5044191;28;20083;-63
2021/03/19 07:24:15;;;;;;;19.27;11.38;;;;;;;5.13;87.14;96736.91;5045238;28;20591;-64
2021/03/19 07:27:27;;;;;;;19.90;11.15;;;;;;;5.12;86.66;96743.53;5057557;28;20086;-63
2021/03/19 07:30:20;;;;;;;26.60;15.10;;;;;;;4.97;89.40;96751.63;5053785;28;20056;-62
2021/03/19 07:33:32;;;;;;;23.37;14.03;;;;;;;4.72;89.37;96744.50;5044612;28;20051;-64
2021/03/19 07:36:52;;;;;;;35.40;28.95;;;;;;;4.86;95.45;96751.28;5043966;28;20090;-64
2021/03/19 07:39:52;;;;;;;19.23;12.43;;;;;;;5.03;90.97;96764.78;5042551;28;20171;-65
2021/03/19 07:42:42;;;;;;;23.65;14.90;;;;;;;5.09;90.74;96765.41;5043547;28;20130;-64
2021/03/19 07:45:29;;;;;;;18.63;10.90;;;;;;;4.81;86.30;96764.41;5043969;28;20102;-64
2021/03/19 07:48:25;;;;;;;18.50;10.70;;;;;;;3.98;92.30;96770.06;5039136;28;20099;-64
2021/03/19 07:51:23;;;;;;;28.15;17.17;;;;;;;4.27;94.01;96771.91;5043432;28;20417;-67
2021/03/19 07:54:11;;;;;;;58.10;27.27;;;;;;;4.50;91.13;96786.88;5044396;28;20116;-66
2021/03/19 07:57:10;;;;;;;37.95;23.45;;;;;;;4.68;88.23;96779.25;5042360;28;20044;-66
2021/03/19 07:59:54;;;;;;;41.03;26.85;;;;;;;4.61;89.46;96780.63;5043294;28;20430;-65
2021/03/19 08:03:01;;;;;;;28.10;18.02;;;;;;;4.71;89.51;96782.09;5043864;28;20043;-64
2021/03/19 08:05:50;;;;;;;21.63;12.63;;;;;;;4.69;88.16;96796.16;5043584;28;20051;-65
2021/03/19 08:08:43;;;;;;;27.73;17.40;;;;;;;4.66;89.20;96791.34;5062531;28;20125;-67
2021/03/19 08:11:43;;;;;;;22.17;13.32;;;;;;;4.63;87.51;96785.78;5063168;28;20032;-64
2021/03/19 08:15:06;;;;;;;19.60;12.48;;;;;;;4.72;85.68;96789.22;5064146;28;20462;-64
2021/03/19 08:18:01;;;;;;;19.95;13.35;;;;;;;4.38;87.63;96790.34;5001192;28;20212;-65
2021/03/19 08:20:59;;;;;;;22.20;13.57;;;;;;;4.61;87.65;96794.34;5000637;28;20194;-64
2021/03/19 08:23:52;;;;;;;29.58;16.42;;;;;;;4.33;85.68;96716.53;5063756;28;20125;-65
2021/03/19 08:27:17;;;;;;;24.92;14.70;;;;;;;3.56;88.72;96741.06;5063308;28;20039;-64
2021/03/19 08:30:05;;;;;;;28.10;15.18;;;;;;;3.80;90.37;96776.81;5052628;28;20592;-65
2021/03/19 08:32:55;;;;;;;27.92;15.30;;;;;;;3.69;90.24;96803.00;5063685;28;20124;-67
2021/03/19 08:36:01;;;;;;;29.55;15.80;;;;;;;3.74;91.82;96796.50;5061961;28;20044;-67
2021/03/19 08:38:49;;;;;;;18.90;10.25;;;;;;;3.40;91.22;96796.72;5057331;28;20056;-67
2021/03/19 08:41:45;;;;;;;31.45;17.45;;;;;;;3.44;92.15;96738.25;5047738;28;20107;-65
2021/03/19 08:44:35;;;;;;;27.70;14.63;;;;;;;3.65;90.48;96804.78;5049277;28;20125;-65
2021/03/19 08:47:33;;;;;;;31.08;17.58;;;;;;;3.78;92.84;96806.47;5050503;28;20047;-62
2021/03/19 08:50:20;;;;;;;36.22;20.17;;;;;;;4.23;94.10;96809.34;5044861;28;20576;-61
2021/03/19 08:53:12;;;;;;;40.72;21.38;;;;;;;4.22;92.49;96805.81;5043295;28;20141;-62
2021/03/19 08:56:05;;;;;;;29.98;15.60;;;;;;;3.95;92.02;96802.81;5040972;28;20114;-63
2021/03/19 08:58:51;;;;;;;44.25;22.63;;;;;;;3.68;91.21;96715.69;5050846;28;20115;-64
2021/03/19 09:01:44;;;;;;;44.53;24.63;;;;;;;4.40;91.83;96793.56;5048438;28;20160;-62
2021/03/19 09:04:53;;;;;;;33.17;18.57;;;;;;;4.49;90.13;96791.53;5056013;28;20083;-63
2021/03/19 09:08:11;;;;;;;31.23;19.13;;;;;;;4.09;91.30;96727.44;5052211;28;20724;-62
2021/03/19 09:11:00;;;;;;;56.65;28.35;;;;;;;4.84;89.60;96791.19;5055609;28;20040;-63
2021/03/19 09:14:00;;;;;;;29.88;16.02;;;;;;;5.11;87.18;96790.53;5049949;28;20067;-62
2021/03/19 09:16:57;;;;;;;32.33;17.17;;;;;;;4.41;85.98;96663.53;5052656;28;20127;-64
2021/03/19 09:19:52;;;;;;;56.70;26.40;;;;;;;5.34;86.71;96788.97;5063292;28;20423;-63
2021/03/19 09:22:39;;;;;;;71.07;34.88;;;;;;;5.52;85.04;96787.56;5046195;28;20110;-63
2021/03/19 09:25:36;;;;;;;29.98;17.35;;;;;;;5.04;84.27;96691.50;5057674;28;20111;-63
2021/03/19 09:28:35;;;;;;;24.10;13.68;;;;;;;5.35;85.44;96785.06;5062790;28;20047;-62
2021/03/19 09:31:25;;;;;;;31.70;15.68;;;;;;;5.44;84.11;96793.97;5051773;28;20086;-62
2021/03/19 09:34:13;;;;;;;30.38;16.52;;;;;;;5.52;85.83;96795.81;5045622;28;20051;-62
2021/03/19 09:37:03;;;;;;;66.72;40.13;;;;;;;5.65;86.41;96800.97;5047314;28;20058;-61
2021/03/19 09:40:06;;;;;;;50.72;33.45;;;;;;;5.78;84.22;96799.03;5046951;28;20076;-62
2021/03/19 09:42:53;;;;;;;67.78;26.15;;;;;;;5.71;83.54;96798.78;5046774;28;20055;-65
2021/03/19 09:45:40;;;;;;;29.85;17.80;;;;;;;4.91;85.17;96797.72;5055594;28;20081;-63
2021/03/19 09:48:26;;;;;;;36.30;20.55;;;;;;;4.94;89.94;96796.22;5058649;28;20159;-63
2021/03/19 09:51:27;;;;;;;33.67;18.77;;;;;;;5.45;90.00;96790.13;5046254;28;20082;-63
2021/03/19 09:54:20;;;;;;;39.80;20.45;;;;;;;5.53;87.34;96742.50;5075844;28;20055;-64
2021/03/19 09:57:11;;;;;;;29.83;17.90;;;;;;;6.07;84.18;96790.50;5046171;28;20419;-63
2021/03/19 09:59:57;;;;;;;32.30;18.00;;;;;;;6.09;81.58;96804.72;5051116;28;20048;-63
2021/03/19 10:02:42;;;;;;;39.70;20.58;;;;;;;6.20;86.43;96796.81;5061002;28;20105;-64
2021/03/19 10:05:36;;;;;;;24.90;15.63;;;;;;;6.50;82.97;96798.06;5052847;28;20048;-63
2021/03/19 10:08:31;;;;;;;35.78;19.35;;;;;;;4.68;83.28;96651.94;5045452;28;20693;-65
2021/03/19 10:11:17;;;;;;;24.05;14.73;;;;;;;5.57;85.73;96803.84;5051384;28;20059;-62
2021/03/19 10:14:20;;;;;;;25.17;14.50;;;;;;;5.83;83.60;96796.06;5048456;28;20613;-65
2021/03/19 10:17:30;;;;;;;21.88;12.25;;;;;;;6.13;81.23;96794.66;5056907;28;20155;-64
2021/03/19 10:20:28;;;;;;;52.33;24.92;;;;;;;5.77;81.15;96797.44;5049745;28;20048;-67
2021/03/19 10:23:12;;;;;;;30.67;17.35;;;;;;;6.24;85.57;96792.19;5049776;28;20506;-63
2021/03/19 10:26:27;;;;;;;21.65;13.80;;;;;;;5.85;83.35;96750.59;5049824;28;20068;-67
2021/03/19 10:29:34;;;;;;;;;;;;;;;5.94;80.85;96792.50;5044638;28;20097;-63
2021/03/19 10:32:23;;;;;;;22.85;13.93;;;;;;;6.00;84.80;96771.06;5058232;28;20062;-63
2021/03/19 10:35:18;;;;;;;30.45;18.98;;;;;;;6.36;83.90;96756.38;5063231;28;20039;-63
2021/03/19 10:38:18;;;;;;;21.50;12.48;;;;;;;6.82;77.32;96789.53;5042511;28;20419;-63
2021/03/19 10:41:20;;;;;;;18.75;12.38;;;;;;;7.08;77.72;96791.81;5043763;28;20546;-63
2021/03/19 10:44:30;;;;;;;17.38;10.93;;;;;;;5.94;74.66;96604.78;5044580;28;20068;-63
2021/03/19 10:47:27;;;;;;;33.03;19.08;;;;;;;6.58;76.81;96696.09;5043770;28;20079;-63
2021/03/19 10:50:24;;;;;;;29.83;18.20;;;;;;;7.45;75.11;96757.31;5047106;28;20039;-65
2021/03/19 10:53:14;;;;;;;17.80;13.25;;;;;;;7.38;69.53;96708.34;5054502;28;20099;-65
2021/03/19 10:56:02;;;;;;;22.38;13.63;;;;;;;6.74;74.41;96704.38;5046787;28;20114;-63
2021/03/19 10:58:55;;;;;;;26.77;15.63;;;;;;;7.31;74.67;96729.44;5046235;28;20052;-66
2021/03/19 11:01:50;;;;;;;17.30;12.23;;;;;;;7.77;73.45;96741.53;5056557;28;20114;-61
2021/03/19 11:04:38;;;;;;;20.05;13.63;;;;;;;7.76;70.68;96731.69;5044753;28;20059;-64
2021/03/19 11:07:28;;;;;;;20.15;13.52;;;;;;;8.91;71.26;96774.72;5045811;28;20144;-63
2021/03/19 11:10:34;;;;;;;18.42;13.15;;;;;;;9.03;68.36;96716.53;5044491;28;20044;-65
2021/03/19 11:13:21;;;;;;;19.17;12.18;;;;;;;9.28;66.47;96761.97;5046931;28;20094;-67
2021/03/19 11:16:30;;;;;;;15.75;11.23;;;;;;;9.41;66.33;96766.16;5043634;28;20047;-68
2021/03/19 11:19:28;;;;;;;15.20;10.65;;;;;;;9.05;65.09;96769.47;5053601;28;20505;-63
2021/03/19 11:22:12;;;;;;;18.88;12.25;;;;;;;9.51;66.64;96760.00;5063816;28;20037;-63
2021/03/19 11:25:21;;;;;;;16.30;12.07;;;;;;;7.89;65.68;96633.88;5060226;28;20046;-62
2021/03/19 11:28:19;;;;;;;17.30;11.90;;;;;;;9.07;67.91;96747.78;5044578;28;20063;-63
2021/03/19 11:31:12;;;;;;;16.95;12.00;;;;;;;9.01;66.90;96746.47;5043118;28;20206;-64
2021/03/19 11:34:34;;;;;;;14.02;9.60;;;;;;;8.85;65.67;96743.06;5054579;28;20099;-62
2021/03/19 11:37:18;;;;;;;11.32;8.15;;;;;;;8.91;63.70;96755.38;5045626;28;20525;-67
2021/03/19 11:40:09;;;;;;;11.75;8.02;;;;;;;8.54;64.65;96754.25;5043577;28;20056;-64
2021/03/19 11:42:56;;;;;;;16.30;12.25;;;;;;;7.42;67.86;96604.56;5051706;28;20074;-69
2021/03/19 11:45:42;;;;;;;15.70;11.25;;;;;;;7.43;66.49;96658.47;5056782;28;20110;-62
2021/03/19 11:48:31;;;;;;;19.65;12.90;;;;;;;8.03;70.36;96750.00;5046929;28;20159;-64
2021/03/19 11:51:17;;;;;;;20.95;15.02;;;;;;;7.94;69.62;96710.78;5044860;28;20109;-62
2021/03/19 11:54:05;;;;;;;18.98;13.40;;;;;;;7.84;69.09;96714.13;5053678;28;20039;-63
2021/03/19 11:56:50;;;;;;;15.95;11.10;;;;;;;8.16;70.04;96737.66;5050348;28;20415;-60
2021/03/19 11:59:34;;;;;;;18.30;11.25;;;;;;;7.52;67.71;96659.06;5044508;28;20523;-62
2021/03/19 12:02:40;;;;;;;16.30;10.60;;;;;;;8.22;65.99;96736.25;5047697;28;20437;-62
2021/03/19 12:05:24;;;;;;;13.73;10.32;;;;;;;8.34;68.38;96733.34;5048524;28;20116;-61
2021/03/19 12:08:08;;;;;;;15.00;10.65;;;;;;;8.40;67.21;96731.91;5050729;28;20126;-62
2021/03/19 12:10:53;;;;;;;14.52;9.43;;;;;;;7.33;65.62;96666.53;5063249;28;20098;-62
2021/03/19 12:13:37;;;;;;;27.90;13.35;;;;;;;6.44;70.63;96661.91;5056737;28;20680;-64
2021/03/19 12:16:22;;;;;;;20.88;10.55;;;;;;;6.72;70.16;96734.22;5044097;28;20102;-61
2021/03/19 12:19:07;;;;;;;12.68;8.50;;;;;;;6.46;70.83;96731.94;5060612;28;20035;-63
2021/03/19 12:21:51;;;;;;;18.45;10.63;;;;;;;6.62;72.15;96729.22;5054959;28;20070;-60
2021/03/19 12:24:36;;;;;;;15.30;11.80;;;;;;;7.01;70.82;96663.00;5044317;28;20123;-59
2021/03/19 12:27:23;;;;;;;14.30;9.93;;;;;;;7.73;69.28;96735.94;5042300;28;20640;-63
2021/03/19 12:30:08;;;;;;;13.98;9.65;;;;;;;8.20;67.76;96722.81;5052287;28;20465;-58
2021/03/19 12:32:54;;;;;;;16.23;12.60;;;;;;;8.81;65.63;96729.16;5048395;28;20040;-58
2021/03/19 12:35:41;;;;;;;14.30;10.95;;;;;;;8.57;62.76;96726.72;5052514;28;20105;-62
2021/03/19 12:38:27;;;;;;;11.77;8.93;;;;;;;7.49;62.40;96579.88;5058848;28;20066;-60
2021/03/19 12:41:11;;;;;;;16.85;12.77;;;;;;;8.38;66.30;96725.94;5052690;28;20083;-58
2021/03/19 12:43:55;;;;;;;17.13;12.15;;;;;;;8.89;64.18;96700.53;5047432;28;20568;-67
2021/03/19 12:46:40;;;;;;;13.88;10.88;;;;;;;9.22;63.09;96738.56;5055758;28;20141;-63
2021/03/19 12:49:24;;;;;;;13.38;10.57;;;;;;;9.32;62.23;96729.69;5049903;28;20075;-59
2021/03/19 12:52:08;;;;;;;13.40;9.82;;;;;;;9.78;61.91;96714.59;5063487;28;20162;-61
2021/03/19 12:54:52;;;;;;;12.27;10.80;;;;;;;10.20;62.86;96726.28;5052084;28;20117;-61
2021/03/19 12:57:36;;;;;;;15.10;10.27;;;;;;;9.34;60.09;96569.81;5056846;28;20039;-62
2021/03/19 13:00:24;;;;;;;19.38;12.63;;;;;;;10.37;59.33;96724.91;5059156;28;20121;-61
2021/03/19 13:03:09;;;;;;;13.77;10.10;;;;;;;10.07;59.66;96733.22;5054408;28;20052;-62
2021/03/19 13:05:53;;;;;;;18.23;12.88;;;;;;;9.65;60.06;96657.09;5053889;28;20152;-63
2021/03/19 13:08:38;;;;;;;95.13;53.95;;;;;;;9.77;60.17;96728.81;5051087;28;20060;-59
2021/03/19 13:11:22;;;;;;;28.20;21.45;;;;;;;9.31;59.32;96700.41;5060241;28;20129;-62
2021/03/19 13:14:07;;;;;;;18.25;13.40;;;;;;;9.08;61.32;96658.22;5060869;28;20039;-69
2021/03/19 13:16:51;;;;;;;25.33;15.18;;;;;;;9.77;61.33;96728.81;5059598;28;20075;-61
2021/03/19 13:19:36;;;;;;;13.63;10.88;;;;;;;9.53;60.63;96724.47;5050539;28;20047;-64
2021/03/19 13:22:20;;;;;;;11.10;8.68;;;;;;;9.49;59.29;96723.63;5062326;28;20102;-61